Aeroporto :
LOGIN :

Iscrizione | Disclaimer

   EN    FR    IT 

 










Sommario :    VFR   VFR Marginale   IFR   IFR Intensivo   IFR Molto Intensivo
Visibilità : 
Base nubi : 
>= 8 km
>= 3000ft
5 / 8 km
1000 / 3000 ft
1500m / 5 km
500 / 1000 ft
800 / 1500m
200 / 500 ft
< 800m
< 200 ft
Simboli :   Temporali  Nebbia  Neve Forte  Precipitazioni Forti  Vento > 20 kt
SIGMETs :   Varie  Temporali  Ghiacco  Turbolenza  Onda orograficha  Ceneri Vulcaniche






- Altitudine del aeroporto : 465 ft
- Codice IATA : LEJ


EDDP - Leipzig Halle

ULTIMO METAR :
  • 191620Z 19010KT CAVOK 15/11 Q1008 NOSIG

METARs OBSOLETI :
  • 191550Z 18009KT CAVOK 15/11 Q1009 NOSIG
  • 191520Z 17008KT CAVOK 15/11 Q1009 NOSIG
  • 191450Z 18012KT CAVOK 15/11 Q1008 NOSIG
  • 191420Z 17014KT CAVOK 15/11 Q1008 NOSIG
  • 191350Z 17013KT CAVOK 16/12 Q1009 NOSIG

TAF TAF EDDP
Valido dal 19 a 12 ore il 20 a 12 ore UTC


191100Z 1912/2012 17009KT 9999 SCT045



MetMap, La meteo Aeronautica in un colpo d'occhio ! - Copyright ORBIFLY Dicembre 2007 - Disclaimer

ORBIFLY MET'MAP TEAM :

Programmazione e sviluppo : Alexandra Zaïnal
Concezione e sviluppo : Baudouin d'Aumeries
Co-Programmazione e sviluppo : Marc-Olivier Méhu
Supporto tecnico e logistico : Manuel Goepfert
Aiuto per la traduzione : Arnaldo La Scala

Contatto : metmap@orbifly.com




FONTI E CREDITI :

   NOAA